createdAt,value
2019-05-17T00:00:58.510Z,4.78
2019-05-17T00:03:28.833Z,4.28
2019-05-17T00:05:58.751Z,5.55
2019-05-17T00:08:34.343Z,4.58
2019-05-17T00:11:00.433Z,3.77
2019-05-17T00:13:30.430Z,5.90
2019-05-17T00:16:00.414Z,7.45
2019-05-17T00:18:30.437Z,3.62
2019-05-17T00:21:01.729Z,8.68
2019-05-17T00:23:31.730Z,6.42
2019-05-17T00:26:02.113Z,4.80
2019-05-17T00:28:32.329Z,6.28
2019-05-17T00:31:02.171Z,8.18
2019-05-17T00:33:32.259Z,4.10
2019-05-17T00:36:02.317Z,8.60
2019-05-17T00:38:45.563Z,7.47
2019-05-17T00:41:04.330Z,5.00
2019-05-17T00:43:36.718Z,5.50
2019-05-17T00:46:06.743Z,8.33
2019-05-17T00:48:37.444Z,3.77
2019-05-17T00:51:10.507Z,7.03
2019-05-17T00:53:41.181Z,6.08
2019-05-17T00:56:11.536Z,6.17
2019-05-17T00:58:41.577Z,7.55
2019-05-17T01:01:11.506Z,5.12
2019-05-17T01:03:41.705Z,9.10
2019-05-17T01:06:12.060Z,6.47
2019-05-17T01:08:41.964Z,5.62
2019-05-17T01:11:12.389Z,7.17
2019-05-17T01:13:42.409Z,7.80
2019-05-17T01:16:12.375Z,7.12
2019-05-17T01:18:42.427Z,8.80
2019-05-17T01:21:13.458Z,9.80
2019-05-17T01:23:43.513Z,8.50
2019-05-17T01:26:13.395Z,9.15
2019-05-17T01:28:43.482Z,5.67
2019-05-17T01:31:13.342Z,8.48
2019-05-17T01:33:43.288Z,8.88
2019-05-17T01:36:13.427Z,8.90
2019-05-17T01:38:43.433Z,6.85
2019-05-17T01:41:13.427Z,11.05
2019-05-17T01:43:43.416Z,9.35
2019-05-17T01:46:13.599Z,10.95
2019-05-17T01:48:43.762Z,12.37
2019-05-17T01:51:13.688Z,10.53
2019-05-17T01:53:43.497Z,10.43
2019-05-17T01:56:13.452Z,10.95
2019-05-17T01:58:43.835Z,7.08
2019-05-17T02:01:13.847Z,11.35
2019-05-17T02:03:43.945Z,10.32
2019-05-17T02:06:16.392Z,8.53
2019-05-17T02:08:47.531Z,10.60
2019-05-17T02:11:18.356Z,9.90
2019-05-17T02:13:48.794Z,8.38
2019-05-17T02:16:18.904Z,9.53
2019-05-17T02:18:48.844Z,10.78
2019-05-17T02:21:19.096Z,6.12
2019-05-17T02:23:48.941Z,7.15
2019-05-17T02:26:19.341Z,13.03
2019-05-17T02:28:51.909Z,5.78
2019-05-17T02:31:24.539Z,7.72
2019-05-17T02:33:53.582Z,10.40
2019-05-17T02:36:24.442Z,11.15
2019-05-17T02:38:54.202Z,7.00
2019-05-17T02:41:24.172Z,6.78
2019-05-17T02:43:54.119Z,6.85
2019-05-17T02:46:24.092Z,7.87
2019-05-17T02:48:54.459Z,6.92
2019-05-17T02:51:24.591Z,6.60
2019-05-17T02:53:54.618Z,9.70
2019-05-17T02:56:25.827Z,6.37
2019-05-17T02:58:55.796Z,3.92
2019-05-17T03:01:25.716Z,6.30
2019-05-17T03:03:55.815Z,3.50
2019-05-17T03:06:25.795Z,5.45
2019-05-17T03:08:56.514Z,5.58
2019-05-17T03:11:26.692Z,4.12
2019-05-17T03:13:56.559Z,4.90
2019-05-17T03:16:26.502Z,6.03
2019-05-17T03:18:57.404Z,3.77
2019-05-17T03:21:27.346Z,3.05
2019-05-17T03:23:57.433Z,3.15
2019-05-17T03:26:27.720Z,2.55
2019-05-17T03:28:57.826Z,4.42
2019-05-17T03:31:34.036Z,3.65
2019-05-17T03:34:05.701Z,4.97
2019-05-17T03:36:36.038Z,2.83
2019-05-17T03:39:05.677Z,2.62
2019-05-17T03:41:35.645Z,2.58
2019-05-17T03:44:05.663Z,4.70
2019-05-17T03:46:36.085Z,2.87
2019-05-17T03:49:06.239Z,3.65
2019-05-17T03:51:36.113Z,3.45
2019-05-17T03:54:06.317Z,4.85
2019-05-17T03:56:36.467Z,4.37
2019-05-17T03:59:06.433Z,3.20
2019-05-17T04:01:36.342Z,3.10
2019-05-17T04:04:06.584Z,2.85
2019-05-17T04:06:36.408Z,5.45
2019-05-17T04:09:07.750Z,3.15
2019-05-17T04:11:37.612Z,4.53
2019-05-17T04:14:08.037Z,4.08
2019-05-17T04:16:38.482Z,2.87
2019-05-17T04:19:08.627Z,4.40
2019-05-17T04:21:38.620Z,4.10
2019-05-17T04:24:08.529Z,4.92
2019-05-17T04:26:38.346Z,4.20
2019-05-17T04:29:08.299Z,2.72
2019-05-17T04:31:38.178Z,3.10
2019-05-17T04:34:08.659Z,3.83
2019-05-17T04:36:38.787Z,3.22
2019-05-17T04:39:09.188Z,3.27
2019-05-17T04:41:45.421Z,4.92
2019-05-17T04:44:12.810Z,4.12
2019-05-17T04:46:43.506Z,2.85
2019-05-17T04:49:13.935Z,5.05
2019-05-17T04:51:44.551Z,2.90
2019-05-17T04:54:14.456Z,5.37
2019-05-17T04:56:46.086Z,5.35
2019-05-17T04:59:15.954Z,6.25
2019-05-17T05:01:45.920Z,5.78
2019-05-17T05:04:16.089Z,5.47
2019-05-17T05:06:46.409Z,6.95
2019-05-17T05:09:16.501Z,6.03
2019-05-17T05:11:59.550Z,5.55
2019-05-17T05:14:17.983Z,5.50
2019-05-17T05:16:48.140Z,4.30
2019-05-17T05:19:17.931Z,6.30
2019-05-17T05:21:48.225Z,4.67
2019-05-17T05:24:18.514Z,5.33
2019-05-17T05:26:48.490Z,2.90
2019-05-17T05:29:18.322Z,5.72
2019-05-17T05:31:48.686Z,4.92
2019-05-17T05:34:18.786Z,5.85
2019-05-17T05:36:49.052Z,5.00
2019-05-17T05:39:19.148Z,3.65
2019-05-17T05:41:51.850Z,4.30
2019-05-17T05:44:21.965Z,4.62
2019-05-17T05:46:51.899Z,3.10
2019-05-17T05:49:22.266Z,3.70
2019-05-17T05:51:52.417Z,4.85
2019-05-17T05:54:22.687Z,2.80
2019-05-17T05:56:54.566Z,5.53
2019-05-17T05:59:24.363Z,4.62
2019-05-17T06:01:54.388Z,4.70
2019-05-17T06:04:24.364Z,7.95
2019-05-17T06:06:54.505Z,6.85
2019-05-17T06:09:24.456Z,5.45
2019-05-17T06:11:54.514Z,7.35
2019-05-17T06:14:25.227Z,6.47
2019-05-17T06:16:55.192Z,4.97
2019-05-17T06:19:25.219Z,6.25
2019-05-17T06:21:55.809Z,6.47
2019-05-17T06:24:25.642Z,5.92
2019-05-17T06:26:55.668Z,6.17
2019-05-17T06:29:25.655Z,5.60
2019-05-17T06:31:55.512Z,9.93
2019-05-17T06:34:25.407Z,7.12
2019-05-17T06:36:56.061Z,8.95
2019-05-17T06:39:26.031Z,5.62
2019-05-17T06:41:55.899Z,7.55
2019-05-17T06:44:26.054Z,7.72
2019-05-17T06:46:56.118Z,7.70
2019-05-17T06:49:26.137Z,5.58
2019-05-17T06:51:56.053Z,6.40
2019-05-17T06:54:26.166Z,8.03
2019-05-17T06:56:56.057Z,6.28
2019-05-17T06:59:25.894Z,8.88
2019-05-17T07:01:56.233Z,7.97
2019-05-17T07:04:26.505Z,8.15
2019-05-17T07:07:14.066Z,6.40
2019-05-17T07:09:44.064Z,7.58
2019-05-17T07:12:14.111Z,7.37
2019-05-17T07:14:44.918Z,5.62
2019-05-17T07:17:14.767Z,6.28
2019-05-17T07:19:44.662Z,6.03
2019-05-17T07:22:16.649Z,8.53
2019-05-17T07:24:46.603Z,6.78
2019-05-17T07:27:16.456Z,6.47
2019-05-17T07:29:46.549Z,6.83
2019-05-17T07:32:16.416Z,7.53
2019-05-17T07:34:46.604Z,7.22
2019-05-17T07:37:16.369Z,8.33
2019-05-17T07:39:57.813Z,7.95
2019-05-17T07:42:19.581Z,7.90
2019-05-17T07:44:49.824Z,7.55
2019-05-17T07:47:20.324Z,9.08
2019-05-17T07:49:50.668Z,8.90
2019-05-17T07:52:20.691Z,7.45
2019-05-17T07:54:50.982Z,7.97
2019-05-17T07:57:21.923Z,8.00
2019-05-17T07:59:51.852Z,10.10
2019-05-17T08:02:21.759Z,8.80
2019-05-17T08:04:51.790Z,6.83
2019-05-17T08:07:21.669Z,11.00
2019-05-17T08:09:51.882Z,9.08
2019-05-17T08:12:21.762Z,8.83
2019-05-17T08:14:51.818Z,10.72
2019-05-17T08:17:21.721Z,8.05
2019-05-17T08:19:51.765Z,8.13
2019-05-17T08:22:21.794Z,9.55
2019-05-17T08:24:53.158Z,9.38
2019-05-17T08:27:23.085Z,11.12
2019-05-17T08:29:52.913Z,10.40
2019-05-17T08:32:23.108Z,9.23
2019-05-17T08:34:53.434Z,13.83
2019-05-17T08:37:23.590Z,9.70
2019-05-17T08:39:53.491Z,14.28
2019-05-17T08:42:23.922Z,9.95
2019-05-17T08:44:54.539Z,8.88
2019-05-17T08:47:24.778Z,11.70
2019-05-17T08:49:54.823Z,16.57
2019-05-17T08:52:24.932Z,10.08
2019-05-17T08:54:54.972Z,11.03
2019-05-17T08:57:25.428Z,9.95
2019-05-17T08:59:55.436Z,13.03
2019-05-17T09:02:25.471Z,9.00
2019-05-17T09:04:55.314Z,13.53
2019-05-17T09:07:25.424Z,11.53
2019-05-17T09:09:55.552Z,8.50
2019-05-17T09:12:26.249Z,12.23
2019-05-17T09:14:56.420Z,14.90
2019-05-17T09:17:26.336Z,7.53
2019-05-17T09:19:56.762Z,11.90
2019-05-17T09:22:26.933Z,9.65
2019-05-17T09:24:59.439Z,6.60
2019-05-17T09:27:30.036Z,8.30
2019-05-17T09:30:00.479Z,6.80
2019-05-17T09:32:30.370Z,6.25
2019-05-17T09:35:00.563Z,10.90
2019-05-17T09:37:30.600Z,7.55
2019-05-17T09:40:01.480Z,10.38
2019-05-17T09:42:31.928Z,13.13
2019-05-17T09:45:01.876Z,10.03
2019-05-17T09:47:33.175Z,11.10
2019-05-17T09:50:03.138Z,10.58
2019-05-17T09:52:33.179Z,10.63
2019-05-17T09:55:09.687Z,8.23
2019-05-17T09:57:40.887Z,11.45
2019-05-17T10:00:11.507Z,11.63
2019-05-17T10:02:41.512Z,10.10
2019-05-17T10:05:11.635Z,7.37
2019-05-17T10:07:41.648Z,12.15
2019-05-17T10:10:12.765Z,12.05
2019-05-17T10:12:42.741Z,15.43
2019-05-17T10:15:12.812Z,14.63
2019-05-17T10:17:42.633Z,15.03
2019-05-17T10:20:13.493Z,11.10
2019-05-17T10:22:43.370Z,8.28
2019-05-17T10:25:13.629Z,9.13
2019-05-17T10:27:43.720Z,11.33
2019-05-17T10:30:13.816Z,10.72
2019-05-17T10:32:43.769Z,11.40
2019-05-17T10:35:13.711Z,10.90
2019-05-17T10:37:43.935Z,8.90
2019-05-17T10:40:14.760Z,9.43
2019-05-17T10:42:45.065Z,12.15
2019-05-17T10:45:15.815Z,14.87
2019-05-17T10:47:50.242Z,10.85
2019-05-17T10:50:21.245Z,10.13
2019-05-17T10:52:51.449Z,10.45
2019-05-17T10:55:21.861Z,10.93
2019-05-17T10:57:51.761Z,7.30
2019-05-17T11:00:23.549Z,9.80
2019-05-17T11:02:53.710Z,6.87
2019-05-17T11:05:27.104Z,9.03
2019-05-17T11:07:57.009Z,9.55
2019-05-17T11:10:27.265Z,11.73
2019-05-17T11:12:57.087Z,8.35
2019-05-17T11:15:27.544Z,7.33
2019-05-17T11:17:57.362Z,7.10
2019-05-17T11:20:27.567Z,7.17
2019-05-17T11:22:57.800Z,4.22
2019-05-17T11:25:27.894Z,7.72
2019-05-17T11:27:57.878Z,6.80
2019-05-17T11:30:27.738Z,6.45
2019-05-17T11:32:58.990Z,5.78
2019-05-17T11:35:29.277Z,8.15
2019-05-17T11:37:59.468Z,7.95
2019-05-17T11:40:29.693Z,7.25
2019-05-17T11:42:59.995Z,6.85
2019-05-17T11:45:32.640Z,6.55
2019-05-17T11:48:01.931Z,6.15
2019-05-17T11:50:31.998Z,7.28
2019-05-17T11:53:01.931Z,8.10
2019-05-17T11:55:32.204Z,7.85
2019-05-17T11:58:02.502Z,6.87
2019-05-17T12:00:32.601Z,7.08
2019-05-17T12:03:02.510Z,8.05
2019-05-17T12:05:32.643Z,6.85
2019-05-17T12:08:02.632Z,5.62
2019-05-17T12:10:32.913Z,7.30
2019-05-17T12:13:03.504Z,7.92
2019-05-17T12:15:44.314Z,6.28
2019-05-17T12:18:05.308Z,5.15
2019-05-17T12:20:38.602Z,5.47
2019-05-17T12:23:08.711Z,6.67
2019-05-17T12:25:41.596Z,5.17
2019-05-17T12:28:12.663Z,3.95
2019-05-17T12:30:43.305Z,6.15
2019-05-17T12:33:13.698Z,4.37
2019-05-17T12:35:43.483Z,4.45
2019-05-17T12:38:13.608Z,4.78
2019-05-17T12:40:43.555Z,5.22
2019-05-17T12:43:14.532Z,4.12
2019-05-17T12:45:59.668Z,6.60
2019-05-17T12:48:19.030Z,4.62
2019-05-17T12:50:48.875Z,5.12
2019-05-17T12:53:19.216Z,4.87
2019-05-17T12:55:49.385Z,6.67
2019-05-17T12:58:19.254Z,5.42
2019-05-17T13:00:49.518Z,7.12
2019-05-17T13:03:19.616Z,5.05
2019-05-17T13:05:49.437Z,2.85
2019-05-17T13:08:19.292Z,5.12
2019-05-17T13:10:49.148Z,4.12
2019-05-17T13:13:19.256Z,4.67
2019-05-17T13:15:49.294Z,5.03
2019-05-17T13:18:19.447Z,4.72
2019-05-17T13:20:49.318Z,4.50
2019-05-17T13:23:19.295Z,2.65
2019-05-17T13:25:49.326Z,3.67
2019-05-17T13:28:19.636Z,3.80
2019-05-17T13:30:49.762Z,4.53
2019-05-17T13:33:19.706Z,2.47
2019-05-17T13:35:49.540Z,3.35
2019-05-17T13:38:19.963Z,3.90
2019-05-17T13:40:50.291Z,5.60
2019-05-17T13:43:20.687Z,3.27
2019-05-17T13:45:51.073Z,3.83
2019-05-17T13:48:21.035Z,4.95
2019-05-17T13:50:51.976Z,5.62
2019-05-17T13:53:22.573Z,5.30
2019-05-17T13:55:53.201Z,3.58
2019-05-17T13:58:24.579Z,4.28
2019-05-17T14:00:54.483Z,3.58
2019-05-17T14:03:27.802Z,4.80
2019-05-17T14:05:57.939Z,5.47
2019-05-17T14:08:27.897Z,5.53
2019-05-17T14:10:58.742Z,6.37
2019-05-17T14:13:29.047Z,6.35
2019-05-17T14:16:02.091Z,7.12
2019-05-17T14:18:32.598Z,5.28
2019-05-17T14:21:02.563Z,5.40
2019-05-17T14:23:33.316Z,4.90
2019-05-17T14:26:03.440Z,6.05
2019-05-17T14:28:33.825Z,5.58
2019-05-17T14:31:14.125Z,5.62
2019-05-17T14:33:44.393Z,7.90
2019-05-17T14:36:16.353Z,4.80
2019-05-17T14:38:46.446Z,4.55
2019-05-17T14:41:16.732Z,4.42
2019-05-17T14:43:46.848Z,2.90
2019-05-17T14:46:16.738Z,4.65
2019-05-17T14:48:46.770Z,6.25
2019-05-17T14:51:16.719Z,7.20
2019-05-17T14:53:46.652Z,4.62
2019-05-17T14:56:16.460Z,4.80
2019-05-17T14:58:46.436Z,4.33
2019-05-17T15:01:16.393Z,3.12
2019-05-17T15:03:46.315Z,3.67
2019-05-17T15:06:16.162Z,4.05
2019-05-17T15:08:46.080Z,4.20
2019-05-17T15:11:15.890Z,3.90
2019-05-17T15:13:45.777Z,3.37
2019-05-17T15:16:15.753Z,3.95
2019-05-17T15:18:45.865Z,4.28
2019-05-17T15:21:17.009Z,4.37
2019-05-17T15:23:47.064Z,3.58
2019-05-17T15:26:17.408Z,5.37
2019-05-17T15:28:47.322Z,4.33
2019-05-17T15:31:17.949Z,3.42
2019-05-17T15:33:47.813Z,3.05
2019-05-17T15:36:17.639Z,3.55
2019-05-17T15:38:47.613Z,3.58
2019-05-17T15:41:17.999Z,3.08
2019-05-17T15:43:47.829Z,2.40
2019-05-17T15:46:17.849Z,3.30
2019-05-17T15:48:49.876Z,4.42
2019-05-17T15:51:19.844Z,3.52
2019-05-17T15:53:49.875Z,3.10
2019-05-17T15:56:20.338Z,2.00
2019-05-17T15:58:50.547Z,1.77
2019-05-17T16:01:20.686Z,2.12
2019-05-17T16:03:50.625Z,2.50
2019-05-17T16:06:20.541Z,2.12
2019-05-17T16:08:50.372Z,2.80
2019-05-17T16:11:20.342Z,2.90
2019-05-17T16:13:50.580Z,2.08
2019-05-17T16:16:20.657Z,2.47
2019-05-17T16:18:50.918Z,2.95
2019-05-17T16:21:21.038Z,1.65
2019-05-17T16:23:50.942Z,1.75
2019-05-17T16:26:20.962Z,2.27
2019-05-17T16:28:51.984Z,2.00
2019-05-17T16:31:22.054Z,2.67
2019-05-17T16:33:51.938Z,1.72
2019-05-17T16:36:21.907Z,2.87
2019-05-17T16:38:52.856Z,2.60
2019-05-17T16:41:22.809Z,2.12
2019-05-17T16:43:52.913Z,2.17
2019-05-17T16:46:23.119Z,2.22
2019-05-17T16:48:54.101Z,2.12
2019-05-17T16:51:24.104Z,2.20
2019-05-17T16:53:54.069Z,2.85
2019-05-17T16:56:24.228Z,4.50
2019-05-17T16:58:56.537Z,2.62
2019-05-17T17:01:26.636Z,2.52
2019-05-17T17:03:56.799Z,3.12
2019-05-17T17:06:27.284Z,2.87
2019-05-17T17:08:58.270Z,2.72
2019-05-17T17:11:28.391Z,2.12
2019-05-17T17:13:58.642Z,2.42
2019-05-17T17:16:28.787Z,3.65
2019-05-17T17:18:58.845Z,2.50
2019-05-17T17:21:30.690Z,2.85
2019-05-17T17:24:01.222Z,2.15
2019-05-17T17:26:34.499Z,3.02
2019-05-17T17:29:04.817Z,2.20
2019-05-17T17:31:35.074Z,2.27
2019-05-17T17:34:05.974Z,3.00
2019-05-17T17:36:36.330Z,2.17
2019-05-17T17:39:09.081Z,2.08
2019-05-17T17:41:39.356Z,3.12
2019-05-17T17:44:09.551Z,3.50
2019-05-17T17:46:39.432Z,3.10
2019-05-17T17:49:09.319Z,2.77
2019-05-17T17:51:39.258Z,2.60
2019-05-17T17:54:09.239Z,3.60
2019-05-17T17:56:39.129Z,2.67
2019-05-17T17:59:09.315Z,2.50
2019-05-17T18:01:39.614Z,2.92
2019-05-17T18:04:13.000Z,4.37
2019-05-17T18:06:43.335Z,2.45
2019-05-17T18:09:13.241Z,2.40
2019-05-17T18:11:43.049Z,2.92
2019-05-17T18:14:13.971Z,3.00
2019-05-17T18:16:44.318Z,3.00
2019-05-17T18:19:14.151Z,3.12
2019-05-17T18:21:44.317Z,3.33
2019-05-17T18:24:14.700Z,3.22
2019-05-17T18:26:44.685Z,3.80
2019-05-17T18:29:14.983Z,2.50
2019-05-17T18:31:45.152Z,3.17
2019-05-17T18:34:15.174Z,2.95
2019-05-17T18:36:45.753Z,3.92
2019-05-17T18:39:15.913Z,3.10
2019-05-17T18:41:48.826Z,2.65
2019-05-17T18:44:27.727Z,3.35
2019-05-17T18:47:03.572Z,3.50
2019-05-17T18:49:33.626Z,3.30
2019-05-17T18:52:03.612Z,3.08
2019-05-17T18:54:34.477Z,2.25
2019-05-17T18:57:04.453Z,3.37
2019-05-17T18:59:34.473Z,2.67
2019-05-17T19:02:04.838Z,3.12
2019-05-17T19:04:35.330Z,2.52
2019-05-17T19:07:06.398Z,2.35
2019-05-17T19:09:36.345Z,2.80
2019-05-17T19:12:06.461Z,2.85
2019-05-17T19:14:43.138Z,2.70
2019-05-17T19:17:09.764Z,4.00
2019-05-17T19:19:40.056Z,2.85
2019-05-17T19:22:10.359Z,2.12
2019-05-17T19:24:40.200Z,2.90
2019-05-17T19:27:10.188Z,3.45
2019-05-17T19:29:43.271Z,3.25
2019-05-17T19:32:12.324Z,4.05
2019-05-17T19:34:42.158Z,3.42
2019-05-17T19:37:12.303Z,2.80
2019-05-17T19:39:42.399Z,2.83
2019-05-17T19:42:12.311Z,3.75
2019-05-17T19:44:57.704Z,3.55
2019-05-17T19:47:15.865Z,4.33
2019-05-17T19:49:46.194Z,3.15
2019-05-17T19:52:16.245Z,3.52
2019-05-17T19:54:46.123Z,3.75
2019-05-17T19:57:15.991Z,4.72
2019-05-17T19:59:46.373Z,5.30
2019-05-17T20:02:16.339Z,5.25
2019-05-17T20:04:46.655Z,4.00
2019-05-17T20:07:16.874Z,7.55
2019-05-17T20:09:46.935Z,6.33
2019-05-17T20:12:18.050Z,4.97
2019-05-17T20:14:47.865Z,5.72
2019-05-17T20:17:17.871Z,3.15
2019-05-17T20:19:48.007Z,4.67
2019-05-17T20:22:17.918Z,3.75
2019-05-17T20:24:47.724Z,3.83
2019-05-17T20:27:18.682Z,3.27
2019-05-17T20:29:49.052Z,4.87
2019-05-17T20:32:19.021Z,5.00
2019-05-17T20:34:48.834Z,4.05
2019-05-17T20:37:18.774Z,4.72
2019-05-17T20:39:49.360Z,4.97
2019-05-17T20:42:19.942Z,5.17
2019-05-17T20:44:49.719Z,3.42
2019-05-17T20:47:19.702Z,3.42
2019-05-17T20:49:50.124Z,3.80
2019-05-17T20:52:20.114Z,4.47
2019-05-17T20:54:50.290Z,5.60
2019-05-17T20:57:20.616Z,5.50
2019-05-17T20:59:50.564Z,6.37
2019-05-17T21:02:20.468Z,6.55
2019-05-17T21:04:50.524Z,5.35
2019-05-17T21:07:20.357Z,6.17
2019-05-17T21:09:50.460Z,5.10
2019-05-17T21:12:20.629Z,5.65
2019-05-17T21:14:50.440Z,4.28
2019-05-17T21:17:20.425Z,4.33
2019-05-17T21:19:50.379Z,5.05
2019-05-17T21:22:20.360Z,4.75
2019-05-17T21:24:50.740Z,7.70
2019-05-17T21:27:20.915Z,5.05
2019-05-17T21:29:51.278Z,6.25
2019-05-17T21:32:21.687Z,5.83
2019-05-17T21:34:51.851Z,6.87
2019-05-17T21:37:22.627Z,6.62
2019-05-17T21:39:52.999Z,8.88
2019-05-17T21:42:22.948Z,6.10
2019-05-17T21:44:52.839Z,5.90
2019-05-17T21:47:22.905Z,7.60
2019-05-17T21:49:52.824Z,9.95
2019-05-17T21:52:23.102Z,6.17
2019-05-17T21:54:53.450Z,6.50
2019-05-17T21:57:23.409Z,6.25
2019-05-17T21:59:53.424Z,5.83
2019-05-17T22:02:23.293Z,5.35
2019-05-17T22:04:53.423Z,5.35
2019-05-17T22:07:23.413Z,6.87
2019-05-17T22:09:53.508Z,5.78
2019-05-17T22:12:23.548Z,4.92
2019-05-17T22:14:53.568Z,6.62
2019-05-17T22:17:23.540Z,9.78
2019-05-17T22:19:54.980Z,7.72
2019-05-17T22:22:24.959Z,7.40
2019-05-17T22:24:55.892Z,8.95
2019-05-17T22:27:28.512Z,5.33
2019-05-17T22:30:02.213Z,6.87
2019-05-17T22:32:32.022Z,7.78
2019-05-17T22:35:02.872Z,6.75
2019-05-17T22:37:32.764Z,8.98
2019-05-17T22:40:02.711Z,7.60
2019-05-17T22:42:32.601Z,7.45
2019-05-17T22:45:02.693Z,10.13
2019-05-17T22:47:33.578Z,7.12
2019-05-17T22:50:03.450Z,6.20
2019-05-17T22:52:33.335Z,6.53
2019-05-17T22:55:03.389Z,4.87
2019-05-17T22:57:33.165Z,6.08
2019-05-17T23:00:04.492Z,4.72
2019-05-17T23:02:36.419Z,3.47
2019-05-17T23:05:06.944Z,4.00
2019-05-17T23:07:36.988Z,4.40
2019-05-17T23:10:07.824Z,5.53
2019-05-17T23:12:37.930Z,5.20
2019-05-17T23:15:08.299Z,4.35
2019-05-17T23:17:38.264Z,5.37
2019-05-17T23:20:08.807Z,5.10
2019-05-17T23:22:39.179Z,4.03
2019-05-17T23:25:09.131Z,4.92
2019-05-17T23:27:39.347Z,5.40
2019-05-17T23:30:10.371Z,5.20
2019-05-17T23:32:41.234Z,4.50
2019-05-17T23:35:11.629Z,4.30
2019-05-17T23:37:41.812Z,4.40
2019-05-17T23:40:12.032Z,4.20
2019-05-17T23:42:42.061Z,3.52
2019-05-17T23:45:12.210Z,5.08
2019-05-17T23:47:42.127Z,4.83
2019-05-17T23:50:12.935Z,4.75
2019-05-17T23:52:42.820Z,3.95
2019-05-17T23:55:13.987Z,4.12
2019-05-17T23:57:44.390Z,4.35
